createdAt,value
2022-09-23T00:00:10.628Z,91.31
2022-09-23T00:01:11.097Z,91.20
2022-09-23T00:02:11.535Z,90.95
2022-09-23T00:03:11.816Z,91.10
2022-09-23T00:04:12.205Z,91.20
2022-09-23T00:05:13.018Z,91.47
2022-09-23T00:06:12.951Z,90.95
2022-09-23T00:07:13.334Z,91.16
2022-09-23T00:08:13.725Z,91.16
2022-09-23T00:09:14.106Z,91.06
2022-09-23T00:10:14.512Z,91.37
2022-09-23T00:11:14.882Z,91.16
2022-09-23T00:12:15.272Z,90.65
2022-09-23T00:13:15.683Z,90.44
2022-09-23T00:14:16.059Z,90.55
2022-09-23T00:15:16.455Z,90.65
2022-09-23T00:16:16.860Z,90.75
2022-09-23T00:17:17.252Z,90.95
2022-09-23T00:18:17.636Z,90.55
2022-09-23T00:19:18.020Z,90.85
2022-09-23T00:20:18.419Z,90.95
2022-09-23T00:21:18.802Z,91.27
2022-09-23T00:22:19.179Z,91.27
2022-09-23T00:23:19.554Z,91.06
2022-09-23T00:24:19.949Z,91.16
2022-09-23T00:25:20.343Z,91.16
2022-09-23T00:26:20.729Z,91.27
2022-09-23T00:27:21.124Z,91.20
2022-09-23T00:28:21.497Z,91.41
2022-09-23T00:29:21.876Z,91.41
2022-09-23T00:30:22.297Z,91.41
2022-09-23T00:31:22.735Z,91.61
2022-09-23T00:32:23.029Z,91.82
2022-09-23T00:33:23.408Z,92.03
2022-09-23T00:34:23.797Z,92.03
2022-09-23T00:35:24.213Z,92.44
2022-09-23T00:36:24.605Z,92.48
2022-09-23T00:37:24.987Z,92.69
2022-09-23T00:38:25.375Z,92.89
2022-09-23T00:39:25.752Z,93.10
2022-09-23T00:40:26.261Z,93.10
2022-09-23T00:41:26.524Z,93.24
2022-09-23T00:42:26.913Z,93.44
2022-09-23T00:43:27.300Z,93.86
2022-09-23T00:44:27.686Z,94.07
2022-09-23T00:45:28.090Z,94.27
2022-09-23T00:46:28.518Z,94.48
2022-09-23T00:47:28.928Z,94.58
2022-09-23T00:48:29.303Z,94.58
2022-09-23T00:49:29.693Z,94.37
2022-09-23T00:50:30.093Z,94.37
2022-09-23T00:51:30.489Z,94.27
2022-09-23T00:52:30.867Z,94.17
2022-09-23T00:53:31.271Z,94.17
2022-09-23T00:54:31.663Z,94.27
2022-09-23T00:55:32.060Z,94.27
2022-09-23T00:56:32.443Z,94.27
2022-09-23T00:57:32.831Z,94.37
2022-09-23T00:58:33.214Z,94.58
2022-09-23T00:59:33.594Z,94.58
2022-09-23T01:00:33.999Z,94.73
2022-09-23T01:01:34.469Z,95.03
2022-09-23T01:02:34.825Z,95.14
2022-09-23T01:03:35.200Z,95.34
2022-09-23T01:04:35.579Z,95.34
2022-09-23T01:05:35.994Z,95.40
2022-09-23T01:06:36.376Z,95.30
2022-09-23T01:07:36.773Z,95.20
2022-09-23T01:08:37.154Z,94.58
2022-09-23T01:09:37.537Z,94.48
2022-09-23T01:10:37.939Z,94.37
2022-09-23T01:11:38.326Z,94.37
2022-09-23T01:12:38.698Z,94.27
2022-09-23T01:13:39.088Z,94.07
2022-09-23T01:14:39.464Z,93.86
2022-09-23T01:15:39.864Z,93.76
2022-09-23T01:16:40.288Z,93.65
2022-09-23T01:17:40.662Z,93.96
2022-09-23T01:18:41.047Z,94.17
2022-09-23T01:19:41.444Z,94.27
2022-09-23T01:20:41.852Z,94.27
2022-09-23T01:21:42.241Z,94.42
2022-09-23T01:22:42.623Z,94.42
2022-09-23T01:23:43.006Z,94.52
2022-09-23T01:24:43.386Z,94.83
2022-09-23T01:25:43.795Z,95.03
2022-09-23T01:26:44.174Z,95.34
2022-09-23T01:27:44.550Z,95.45
2022-09-23T01:28:44.925Z,95.55
2022-09-23T01:29:45.300Z,95.86
2022-09-23T01:30:45.756Z,95.65
2022-09-23T01:31:46.021Z,95.24
2022-09-23T01:32:46.404Z,94.93
2022-09-23T01:33:46.789Z,94.83
2022-09-23T01:34:47.163Z,94.52
2022-09-23T01:35:47.575Z,94.52
2022-09-23T01:36:47.957Z,94.52
2022-09-23T01:37:48.342Z,94.42
2022-09-23T01:38:48.727Z,94.42
2022-09-23T01:39:49.100Z,94.73
2022-09-23T01:40:49.542Z,94.37
2022-09-23T01:41:49.855Z,94.17
2022-09-23T01:42:50.236Z,94.07
2022-09-23T01:43:50.618Z,93.55
2022-09-23T01:44:50.993Z,93.35
2022-09-23T01:45:51.393Z,93.35
2022-09-23T01:46:51.781Z,93.35
2022-09-23T01:47:52.213Z,93.55
2022-09-23T01:48:52.602Z,93.55
2022-09-23T01:49:52.990Z,93.59
2022-09-23T01:50:53.386Z,93.86
2022-09-23T01:51:53.866Z,93.90
2022-09-23T01:52:54.161Z,93.80
2022-09-23T01:53:54.543Z,93.90
2022-09-23T01:54:54.923Z,94.01
2022-09-23T01:55:55.373Z,93.80
2022-09-23T01:56:55.754Z,93.80
2022-09-23T01:57:56.136Z,93.80
2022-09-23T01:58:56.556Z,94.01
2022-09-23T01:59:56.940Z,94.01
2022-09-23T02:00:57.363Z,94.01
2022-09-23T02:01:57.812Z,93.96
2022-09-23T02:02:58.160Z,93.35
2022-09-23T02:03:58.621Z,93.14
2022-09-23T02:04:58.993Z,93.14
2022-09-23T02:05:59.524Z,93.04
2022-09-23T02:06:59.810Z,92.93
2022-09-23T02:08:00.211Z,92.93
2022-09-23T02:09:00.596Z,92.83
2022-09-23T02:10:00.994Z,92.93
2022-09-23T02:11:01.391Z,92.93
2022-09-23T02:12:01.773Z,92.73
2022-09-23T02:13:02.167Z,93.04
2022-09-23T02:14:02.563Z,93.14
2022-09-23T02:15:02.945Z,93.04
2022-09-23T02:16:03.363Z,93.14
2022-09-23T02:17:03.761Z,93.29
2022-09-23T02:18:04.161Z,93.39
2022-09-23T02:19:04.543Z,93.55
2022-09-23T02:20:04.943Z,93.59
2022-09-23T02:21:05.340Z,93.80
2022-09-23T02:22:05.729Z,93.59
2022-09-23T02:23:06.125Z,93.70
2022-09-23T02:24:06.519Z,93.74
2022-09-23T02:25:06.902Z,94.05
2022-09-23T02:26:07.309Z,94.26
2022-09-23T02:27:07.696Z,94.46
2022-09-23T02:28:08.089Z,94.36
2022-09-23T02:29:08.469Z,94.46
2022-09-23T02:30:08.878Z,94.67
2022-09-23T02:31:09.272Z,94.77
2022-09-23T02:32:09.725Z,94.67
2022-09-23T02:33:10.122Z,94.46
2022-09-23T02:34:10.540Z,94.46
2022-09-23T02:35:10.921Z,94.56
2022-09-23T02:36:11.327Z,94.46
2022-09-23T02:37:11.706Z,94.67
2022-09-23T02:38:12.104Z,94.87
2022-09-23T02:39:12.502Z,94.77
2022-09-23T02:40:12.973Z,94.67
2022-09-23T02:41:13.273Z,94.77
2022-09-23T02:42:13.660Z,94.87
2022-09-23T02:43:14.049Z,94.87
2022-09-23T02:44:14.441Z,94.77
2022-09-23T02:45:14.825Z,94.56
2022-09-23T02:46:15.295Z,94.46
2022-09-23T02:47:15.567Z,94.81
2022-09-23T02:48:15.954Z,94.92
2022-09-23T02:49:16.345Z,95.02
2022-09-23T02:50:16.733Z,95.12
2022-09-23T02:51:17.133Z,95.23
2022-09-23T02:52:17.533Z,95.23
2022-09-23T02:53:17.923Z,95.12
2022-09-23T02:54:18.327Z,95.12
2022-09-23T02:55:18.700Z,95.23
2022-09-23T02:56:19.097Z,95.23
2022-09-23T02:57:19.474Z,95.33
2022-09-23T02:58:19.858Z,95.33
2022-09-23T02:59:20.252Z,95.43
2022-09-23T03:00:20.641Z,95.68
2022-09-23T03:01:21.093Z,95.99
2022-09-23T03:02:21.502Z,96.09
2022-09-23T03:03:21.895Z,96.20
2022-09-23T03:04:22.280Z,96.20
2022-09-23T03:05:22.661Z,96.30
2022-09-23T03:06:23.069Z,96.41
2022-09-23T03:07:23.462Z,96.41
2022-09-23T03:08:23.852Z,96.41
2022-09-23T03:09:24.262Z,96.41
2022-09-23T03:10:24.650Z,96.50
2022-09-23T03:11:25.055Z,96.71
2022-09-23T03:12:25.438Z,96.96
2022-09-23T03:13:29.280Z,96.92
2022-09-23T03:14:26.199Z,96.92
2022-09-23T03:15:26.578Z,97.06
2022-09-23T03:16:27.013Z,96.96
2022-09-23T03:17:27.379Z,96.96
2022-09-23T03:18:27.778Z,97.06
2022-09-23T03:19:28.167Z,97.17
2022-09-23T03:20:28.556Z,97.27
2022-09-23T03:21:28.969Z,97.38
2022-09-23T03:22:29.350Z,97.48
2022-09-23T03:23:29.736Z,97.48
2022-09-23T03:24:30.126Z,97.48
2022-09-23T03:25:30.513Z,97.48
2022-09-23T03:26:30.924Z,97.68
2022-09-23T03:27:31.314Z,97.78
2022-09-23T03:28:31.701Z,97.78
2022-09-23T03:29:32.099Z,97.78
2022-09-23T03:30:32.509Z,97.58
2022-09-23T03:31:33.076Z,97.58
2022-09-23T03:32:33.258Z,97.58
2022-09-23T03:33:33.650Z,97.58
2022-09-23T03:34:34.040Z,97.58
2022-09-23T03:35:34.430Z,97.58
2022-09-23T03:36:34.841Z,97.58
2022-09-23T03:37:35.234Z,97.58
2022-09-23T03:38:35.632Z,97.68
2022-09-23T03:39:36.016Z,97.58
2022-09-23T03:40:36.469Z,97.68
2022-09-23T03:41:36.841Z,97.78
2022-09-23T03:42:37.224Z,97.78
2022-09-23T03:43:38.964Z,97.89
2022-09-23T03:44:38.030Z,97.89
2022-09-23T03:45:38.607Z,97.68
2022-09-23T03:46:38.805Z,97.58
2022-09-23T03:47:39.180Z,97.38
2022-09-23T03:48:39.591Z,97.27
2022-09-23T03:49:39.981Z,97.27
2022-09-23T03:50:40.368Z,97.17
2022-09-23T03:51:44.476Z,97.06
2022-09-23T03:52:41.160Z,97.06
2022-09-23T03:53:41.551Z,97.06
2022-09-23T03:54:41.943Z,96.92
2022-09-23T03:55:42.333Z,96.71
2022-09-23T03:56:42.739Z,96.61
2022-09-23T03:57:43.130Z,96.34
2022-09-23T03:58:43.528Z,96.45
2022-09-23T03:59:43.917Z,96.66
2022-09-23T04:00:44.357Z,96.66
2022-09-23T04:01:44.783Z,96.75
2022-09-23T04:02:45.185Z,96.75
2022-09-23T04:03:45.586Z,96.75
2022-09-23T04:04:45.974Z,96.75
2022-09-23T04:05:46.365Z,96.75
2022-09-23T04:06:46.785Z,97.06
2022-09-23T04:07:47.184Z,97.06
2022-09-23T04:08:47.583Z,97.06
2022-09-23T04:09:47.975Z,96.86
2022-09-23T04:10:50.697Z,96.86
2022-09-23T04:11:49.858Z,96.75
2022-09-23T04:12:49.235Z,96.75
2022-09-23T04:13:49.626Z,96.75
2022-09-23T04:14:50.019Z,96.86
2022-09-23T04:15:50.405Z,96.86
2022-09-23T04:16:50.861Z,96.86
2022-09-23T04:17:51.143Z,96.96
2022-09-23T04:18:51.540Z,96.96
2022-09-23T04:19:52.022Z,97.17
2022-09-23T04:20:52.322Z,97.27
2022-09-23T04:21:52.741Z,97.06
2022-09-23T04:22:53.150Z,97.17
2022-09-23T04:23:53.560Z,97.27
2022-09-23T04:24:53.969Z,97.38
2022-09-23T04:25:54.374Z,97.38
2022-09-23T04:26:54.801Z,97.27
2022-09-23T04:27:55.197Z,97.27
2022-09-23T04:28:55.604Z,97.17
2022-09-23T04:29:56.012Z,97.17
2022-09-23T04:30:56.420Z,97.17
2022-09-23T04:31:56.884Z,97.17
2022-09-23T04:32:57.269Z,97.17
2022-09-23T04:33:57.685Z,97.27
2022-09-23T04:34:58.094Z,97.38
2022-09-23T04:35:58.513Z,97.17
2022-09-23T04:36:58.966Z,97.06
2022-09-23T04:37:59.358Z,96.92
2022-09-23T04:38:59.791Z,96.71
2022-09-23T04:40:00.175Z,96.50
2022-09-23T04:41:00.582Z,96.45
2022-09-23T04:42:00.974Z,96.34
2022-09-23T04:43:01.366Z,96.45
2022-09-23T04:44:01.785Z,96.55
2022-09-23T04:45:02.165Z,96.75
2022-09-23T04:46:02.570Z,96.55
2022-09-23T04:47:03.009Z,96.55
2022-09-23T04:48:03.374Z,96.66
2022-09-23T04:49:03.772Z,96.75
2022-09-23T04:50:04.172Z,96.75
2022-09-23T04:51:04.568Z,96.71
2022-09-23T04:52:04.981Z,96.61
2022-09-23T04:53:05.369Z,96.50
2022-09-23T04:54:05.763Z,96.41
2022-09-23T04:55:10.508Z,96.20
2022-09-23T04:56:07.604Z,96.09
2022-09-23T04:57:07.030Z,96.24
2022-09-23T04:58:07.423Z,96.30
2022-09-23T04:59:07.882Z,96.30
2022-09-23T05:00:08.199Z,96.41
2022-09-23T05:01:08.690Z,96.41
2022-09-23T05:02:09.081Z,96.30
2022-09-23T05:03:09.411Z,96.41
2022-09-23T05:04:09.848Z,96.41
2022-09-23T05:05:10.219Z,96.41
2022-09-23T05:06:10.629Z,96.41
2022-09-23T05:07:11.044Z,96.45
2022-09-23T05:08:11.443Z,96.45
2022-09-23T05:09:11.836Z,96.66
2022-09-23T05:10:12.243Z,96.66
2022-09-23T05:11:12.632Z,96.86
2022-09-23T05:12:13.019Z,97.17
2022-09-23T05:13:13.423Z,97.27
2022-09-23T05:14:13.818Z,97.33
2022-09-23T05:15:14.199Z,97.33
2022-09-23T05:16:14.625Z,97.13
2022-09-23T05:17:15.029Z,97.13
2022-09-23T05:18:20.199Z,96.71
2022-09-23T05:19:16.866Z,96.71
2022-09-23T05:20:16.252Z,96.71
2022-09-23T05:21:16.636Z,96.71
2022-09-23T05:22:17.038Z,96.71
2022-09-23T05:23:17.416Z,96.61
2022-09-23T05:24:17.807Z,96.61
2022-09-23T05:25:18.194Z,96.67
2022-09-23T05:26:18.583Z,96.56
2022-09-23T05:27:18.970Z,96.36
2022-09-23T05:28:19.359Z,96.41
2022-09-23T05:29:20.463Z,96.56
2022-09-23T05:30:20.179Z,96.56
2022-09-23T05:31:20.987Z,96.67
2022-09-23T05:32:20.965Z,96.56
2022-09-23T05:33:21.352Z,96.05
2022-09-23T05:34:21.753Z,95.74
2022-09-23T05:35:22.146Z,95.23
2022-09-23T05:36:22.539Z,95.12
2022-09-23T05:37:22.930Z,95.43
2022-09-23T05:38:23.310Z,95.64
2022-09-23T05:39:23.704Z,95.43
2022-09-23T05:40:24.166Z,95.23
2022-09-23T05:41:24.549Z,95.23
2022-09-23T05:42:24.948Z,95.02
2022-09-23T05:43:25.348Z,95.12
2022-09-23T05:44:25.748Z,94.92
2022-09-23T05:45:26.967Z,95.02
2022-09-23T05:46:26.567Z,94.77
2022-09-23T05:47:26.943Z,94.87
2022-09-23T05:48:27.350Z,94.62
2022-09-23T05:49:48.384Z,93.80
2022-09-23T05:50:29.209Z,93.44
2022-09-23T05:51:30.960Z,92.52
2022-09-23T05:52:29.751Z,92.42
2022-09-23T05:53:29.371Z,91.97
2022-09-23T05:54:29.768Z,91.45
2022-09-23T05:55:30.151Z,90.63
2022-09-23T05:56:30.551Z,90.48
2022-09-23T05:57:30.956Z,90.18
2022-09-23T05:58:31.350Z,89.76
2022-09-23T05:59:31.746Z,89.31
2022-09-23T06:00:32.185Z,88.80
2022-09-23T06:01:32.643Z,88.59
2022-09-23T06:02:33.076Z,88.96
2022-09-23T06:03:33.466Z,88.24
2022-09-23T06:04:33.917Z,87.59
2022-09-23T06:05:34.190Z,86.25
2022-09-23T06:06:34.591Z,86.05
2022-09-23T06:07:35.002Z,86.32
2022-09-23T06:08:35.418Z,85.50
2022-09-23T06:09:36.879Z,84.53
2022-09-23T06:10:36.273Z,83.61
2022-09-23T06:11:36.694Z,83.51
2022-09-23T06:12:37.137Z,83.37
2022-09-23T06:13:37.538Z,83.58
2022-09-23T06:14:37.934Z,82.55
2022-09-23T06:15:38.315Z,82.55
2022-09-23T06:16:38.711Z,82.65
2022-09-23T06:17:39.088Z,82.10
2022-09-23T06:18:39.472Z,81.38
2022-09-23T06:19:39.836Z,80.98
2022-09-23T06:20:40.210Z,81.35
2022-09-23T06:21:40.601Z,80.63
2022-09-23T06:22:40.950Z,80.19
2022-09-23T06:23:41.985Z,79.88
2022-09-23T06:24:41.722Z,79.23
2022-09-23T06:25:42.102Z,78.61
2022-09-23T06:26:42.499Z,78.07
2022-09-23T06:27:42.880Z,78.13
2022-09-23T06:28:43.342Z,77.28
2022-09-23T06:29:43.642Z,75.82
2022-09-23T06:30:44.069Z,75.92
2022-09-23T06:31:44.445Z,75.20
2022-09-23T06:32:44.807Z,75.61
2022-09-23T06:33:45.180Z,75.37
2022-09-23T06:34:51.572Z,74.86
2022-09-23T06:35:56.348Z,74.08
2022-09-23T06:36:47.199Z,72.82
2022-09-23T06:37:46.581Z,71.87
2022-09-23T06:38:46.957Z,71.33
2022-09-23T06:39:47.339Z,70.31
2022-09-23T06:40:47.728Z,70.01
2022-09-23T06:41:48.071Z,70.21
2022-09-23T06:42:52.257Z,70.72
2022-09-23T06:43:48.747Z,70.10
2022-09-23T06:44:49.104Z,70.07
2022-09-23T06:45:49.457Z,69.36
2022-09-23T06:46:49.840Z,69.30
2022-09-23T06:47:50.199Z,68.28
2022-09-23T06:48:50.553Z,67.94
2022-09-23T06:49:50.895Z,66.90
2022-09-23T06:50:51.245Z,66.36
2022-09-23T06:51:51.592Z,65.82
2022-09-23T06:52:51.956Z,64.58
2022-09-23T06:53:52.307Z,64.37
2022-09-23T06:54:52.644Z,64.85
2022-09-23T06:55:53.035Z,64.11
2022-09-23T06:56:53.371Z,62.46
2022-09-23T06:57:53.713Z,61.79
2022-09-23T06:58:54.046Z,60.96
2022-09-23T06:59:54.384Z,60.55
2022-09-23T07:00:54.757Z,60.45
2022-09-23T07:01:55.173Z,60.48
2022-09-23T07:02:55.498Z,60.82
2022-09-23T07:03:55.850Z,59.58
2022-09-23T07:04:56.176Z,58.75
2022-09-23T07:05:56.525Z,57.61
2022-09-23T07:06:57.075Z,57.68
2022-09-23T07:07:57.193Z,57.38
2022-09-23T07:08:57.548Z,56.77
2022-09-23T07:09:57.909Z,57.05
2022-09-23T07:10:58.243Z,57.18
2022-09-23T07:11:58.565Z,56.45
2022-09-23T07:12:58.885Z,56.48
2022-09-23T07:13:59.247Z,56.77
2022-09-23T07:14:59.742Z,56.68
2022-09-23T07:15:59.943Z,56.75
2022-09-23T07:17:00.299Z,56.42
2022-09-23T07:18:00.596Z,55.49
2022-09-23T07:19:00.951Z,54.79
2022-09-23T07:20:01.266Z,55.19
2022-09-23T07:21:01.582Z,54.86
2022-09-23T07:22:01.894Z,54.03
2022-09-23T07:23:02.205Z,54.05
2022-09-23T07:24:02.532Z,54.15
2022-09-23T07:25:02.852Z,54.03
2022-09-23T07:26:03.187Z,53.12
2022-09-23T07:27:03.532Z,53.70
2022-09-23T07:28:03.832Z,53.57
2022-09-23T07:29:04.157Z,53.14
2022-09-23T07:30:04.651Z,52.69
2022-09-23T07:31:04.816Z,53.92
2022-09-23T07:32:12.854Z,53.70
2022-09-23T07:33:22.064Z,53.90
2022-09-23T07:34:06.633Z,52.57
2022-09-23T07:35:05.830Z,52.87
2022-09-23T07:36:06.133Z,53.25
2022-09-23T07:37:06.426Z,53.70
2022-09-23T07:38:06.777Z,52.77
2022-09-23T07:39:07.026Z,52.77
2022-09-23T07:40:07.400Z,53.30
2022-09-23T07:41:07.584Z,53.40
2022-09-23T07:42:07.882Z,52.97
2022-09-23T07:43:08.184Z,53.20
2022-09-23T07:44:08.562Z,53.20
2022-09-23T07:45:08.761Z,52.89
2022-09-23T07:46:09.120Z,53.07
2022-09-23T07:47:09.407Z,53.09
2022-09-23T07:48:09.720Z,53.20
2022-09-23T07:49:10.024Z,52.64
2022-09-23T07:50:10.322Z,52.44
2022-09-23T07:51:10.610Z,52.34
2022-09-23T07:52:10.901Z,51.61
2022-09-23T07:53:11.213Z,51.69
2022-09-23T07:54:11.524Z,51.79
2022-09-23T07:55:11.824Z,51.49
2022-09-23T07:56:12.123Z,51.84
2022-09-23T07:57:12.425Z,52.26
2022-09-23T07:58:12.718Z,52.57
2022-09-23T07:59:13.042Z,52.01
2022-09-23T08:00:14.293Z,52.04
2022-09-23T08:01:13.627Z,51.84
2022-09-23T08:02:13.970Z,51.92
2022-09-23T08:03:14.314Z,52.12
2022-09-23T08:04:14.491Z,52.44
2022-09-23T08:05:14.789Z,51.92
2022-09-23T08:06:15.094Z,52.64
2022-09-23T08:07:15.381Z,53.22
2022-09-23T08:08:15.686Z,54.75
2022-09-23T08:09:15.991Z,55.41
2022-09-23T08:10:16.265Z,55.91
2022-09-23T08:11:16.559Z,54.91
2022-09-23T08:12:16.873Z,55.74
2022-09-23T08:13:17.183Z,55.31
2022-09-23T08:14:17.493Z,54.79
2022-09-23T08:15:17.837Z,54.88
2022-09-23T08:16:18.210Z,54.46
2022-09-23T08:17:18.455Z,54.55
2022-09-23T08:18:18.740Z,53.60
2022-09-23T08:19:19.050Z,53.27
2022-09-23T08:20:20.197Z,53.47
2022-09-23T08:21:19.657Z,52.64
2022-09-23T08:22:19.842Z,52.74
2022-09-23T08:23:20.136Z,52.64
2022-09-23T08:24:20.834Z,52.22
2022-09-23T08:25:22.679Z,52.19
2022-09-23T08:26:22.401Z,51.74
2022-09-23T08:27:21.409Z,50.44
2022-09-23T08:28:21.586Z,50.66
2022-09-23T08:29:21.791Z,51.49
2022-09-23T08:30:22.116Z,51.59
2022-09-23T08:31:22.446Z,51.39
2022-09-23T08:32:22.683Z,50.89
2022-09-23T08:33:23.765Z,51.29
2022-09-23T08:34:23.327Z,51.17
2022-09-23T08:35:23.611Z,50.74
2022-09-23T08:36:23.901Z,49.74
2022-09-23T08:37:24.193Z,49.71
2022-09-23T08:38:24.496Z,50.04
2022-09-23T08:39:24.799Z,50.66
2022-09-23T08:40:25.124Z,51.24
2022-09-23T08:41:25.378Z,50.54
2022-09-23T08:42:25.658Z,51.04
2022-09-23T08:43:25.934Z,50.63
2022-09-23T08:44:26.218Z,51.17
2022-09-23T08:45:26.506Z,51.46
2022-09-23T08:46:26.854Z,50.84
2022-09-23T08:47:27.003Z,51.06
2022-09-23T08:48:27.290Z,51.69
2022-09-23T08:49:27.573Z,51.26
2022-09-23T08:50:27.833Z,51.39
2022-09-23T08:51:28.114Z,48.96
2022-09-23T08:52:28.382Z,48.57
2022-09-23T08:53:28.673Z,48.91
2022-09-23T08:54:28.960Z,50.04
2022-09-23T08:55:29.224Z,50.66
2022-09-23T08:56:29.499Z,51.06
2022-09-23T08:57:29.758Z,50.84
2022-09-23T08:58:30.024Z,49.39
2022-09-23T08:59:30.301Z,48.89
2022-09-23T09:00:30.555Z,49.51
2022-09-23T09:01:30.837Z,48.69
2022-09-23T09:02:31.121Z,49.63
2022-09-23T09:03:31.387Z,50.66
2022-09-23T09:04:31.835Z,50.56
2022-09-23T09:05:31.872Z,50.89
2022-09-23T09:06:32.135Z,50.84
2022-09-23T09:07:36.686Z,49.71
2022-09-23T09:08:33.597Z,49.51
2022-09-23T09:09:32.866Z,50.11
2022-09-23T09:10:33.124Z,49.39
2022-09-23T09:11:33.374Z,49.58
2022-09-23T09:12:33.640Z,48.84
2022-09-23T09:13:33.915Z,47.31
2022-09-23T09:14:34.205Z,47.92
2022-09-23T09:15:34.479Z,48.44
2022-09-23T09:16:58.432Z,48.76
2022-09-23T09:17:35.920Z,48.54
2022-09-23T09:18:35.159Z,47.92
2022-09-23T09:19:35.428Z,47.60
2022-09-23T09:20:35.682Z,46.07
2022-09-23T09:21:35.921Z,46.57
2022-09-23T09:23:36.356Z,44.79
2022-09-23T09:24:36.684Z,44.17
2022-09-23T09:25:36.807Z,43.85
2022-09-23T09:26:37.056Z,43.99
2022-09-23T09:27:37.288Z,44.29
2022-09-23T09:28:37.525Z,43.81
2022-09-23T09:29:38.154Z,43.99
2022-09-23T09:30:37.980Z,43.99
2022-09-23T09:31:38.269Z,43.67
2022-09-23T09:32:38.438Z,43.45
2022-09-23T09:33:38.666Z,43.17
2022-09-23T09:34:38.927Z,43.07
2022-09-23T09:35:39.146Z,44.09
2022-09-23T09:36:39.381Z,44.79
2022-09-23T09:37:39.603Z,44.91
2022-09-23T09:38:39.831Z,45.21
2022-09-23T09:39:40.062Z,45.57
2022-09-23T09:40:40.344Z,45.33
2022-09-23T09:41:40.467Z,45.17
2022-09-23T09:42:40.708Z,46.00
2022-09-23T09:43:44.071Z,45.57
2022-09-23T09:44:41.182Z,46.47
2022-09-23T09:45:41.398Z,45.50
2022-09-23T09:46:41.646Z,45.59
2022-09-23T09:47:41.861Z,46.64
2022-09-23T09:48:42.088Z,46.42
2022-09-23T09:49:42.349Z,46.00
2022-09-23T09:50:42.569Z,44.95
2022-09-23T09:51:42.827Z,43.95
2022-09-23T09:52:43.948Z,44.53
2022-09-23T09:53:43.156Z,44.11
2022-09-23T09:54:43.400Z,43.23
2022-09-23T09:55:43.615Z,45.21
2022-09-23T09:56:43.905Z,47.58
2022-09-23T09:57:44.177Z,45.60
2022-09-23T09:58:44.395Z,47.27
2022-09-23T09:59:44.643Z,46.93
2022-09-23T10:00:44.886Z,45.56
2022-09-23T10:01:45.153Z,45.34
2022-09-23T10:02:45.392Z,45.36
2022-09-23T10:03:45.643Z,44.92
2022-09-23T10:04:45.948Z,44.49
2022-09-23T10:05:46.083Z,43.59
2022-09-23T10:06:46.333Z,41.60
2022-09-23T10:07:46.594Z,42.90
2022-09-23T10:08:46.838Z,42.99
2022-09-23T10:09:47.093Z,43.27
2022-09-23T10:10:47.331Z,42.07
2022-09-23T10:11:47.561Z,41.67
2022-09-23T10:12:47.795Z,42.05
2022-09-23T10:13:48.058Z,39.54
2022-09-23T10:14:48.273Z,39.94
2022-09-23T10:15:48.505Z,40.44
2022-09-23T10:16:48.866Z,40.01
2022-09-23T10:17:48.989Z,40.00
2022-09-23T10:18:49.216Z,40.04
2022-09-23T10:19:49.455Z,41.33
2022-09-23T10:20:49.673Z,40.62
2022-09-23T10:21:49.901Z,41.14
2022-09-23T10:22:50.124Z,41.00
2022-09-23T10:23:50.350Z,39.92
2022-09-23T10:24:50.592Z,39.60
2022-09-23T10:25:50.811Z,40.50
2022-09-23T10:26:51.041Z,39.86
2022-09-23T10:27:51.252Z,39.56
2022-09-23T10:28:51.469Z,39.68
2022-09-23T10:29:51.706Z,40.88
2022-09-23T10:30:52.024Z,40.24
2022-09-23T10:31:52.091Z,39.68
2022-09-23T10:32:52.304Z,41.39
2022-09-23T10:33:52.528Z,40.38
2022-09-23T10:34:52.753Z,40.54
2022-09-23T10:35:52.964Z,41.31
2022-09-23T10:36:53.209Z,39.11
2022-09-23T10:37:53.443Z,39.34
2022-09-23T10:38:53.669Z,40.50
2022-09-23T10:39:53.904Z,42.10
2022-09-23T10:40:54.235Z,41.02
2022-09-23T10:41:54.358Z,39.82
2022-09-23T10:42:54.570Z,38.80
2022-09-23T10:43:54.783Z,39.98
2022-09-23T10:44:55.008Z,39.18
2022-09-23T10:45:55.356Z,39.28
2022-09-23T10:46:55.440Z,39.30
2022-09-23T10:47:55.652Z,39.12
2022-09-23T10:48:55.879Z,39.74
2022-09-23T10:49:56.125Z,38.70
2022-09-23T10:50:57.076Z,37.60
2022-09-23T10:51:56.604Z,38.46
2022-09-23T10:52:56.831Z,37.43
2022-09-23T10:53:57.204Z,36.65
2022-09-23T10:54:57.259Z,37.59
2022-09-23T10:55:57.486Z,38.80
2022-09-23T10:56:59.156Z,38.50
2022-09-23T10:57:57.936Z,38.90
2022-09-23T10:58:58.168Z,39.30
2022-09-23T10:59:58.407Z,39.32
2022-09-23T11:00:58.676Z,39.24
2022-09-23T11:01:58.878Z,39.02
2022-09-23T11:02:59.139Z,39.00
2022-09-23T11:03:59.390Z,39.32
2022-09-23T11:04:59.879Z,40.04
2022-09-23T11:05:59.863Z,41.25
2022-09-23T11:07:00.091Z,39.98
2022-09-23T11:08:00.330Z,39.95
2022-09-23T11:09:01.132Z,40.66
2022-09-23T11:10:00.783Z,40.72
2022-09-23T11:11:00.939Z,41.11
2022-09-23T11:12:01.169Z,39.24
2022-09-23T11:13:01.400Z,39.46
2022-09-23T11:14:01.640Z,40.56
2022-09-23T11:15:01.944Z,39.46
2022-09-23T11:16:02.097Z,39.95
2022-09-23T11:17:02.408Z,38.85
2022-09-23T11:18:02.654Z,39.26
2022-09-23T11:19:02.883Z,39.24
2022-09-23T11:20:03.148Z,38.56
2022-09-23T11:21:03.390Z,39.15
2022-09-23T11:22:03.620Z,39.48
2022-09-23T11:23:03.866Z,39.81
2022-09-23T11:24:04.122Z,39.83
2022-09-23T11:25:04.417Z,40.19
2022-09-23T11:26:04.558Z,38.78
2022-09-23T11:27:04.801Z,40.47
2022-09-23T11:28:05.040Z,39.58
2022-09-23T11:29:05.272Z,39.42
2022-09-23T11:30:05.839Z,39.18
2022-09-23T11:31:05.894Z,38.50
2022-09-23T11:32:05.923Z,37.81
2022-09-23T11:33:06.169Z,38.66
2022-09-23T11:34:06.472Z,39.42
2022-09-23T11:35:06.696Z,38.52
2022-09-23T11:36:06.933Z,37.86
2022-09-23T11:37:07.177Z,38.68
2022-09-23T11:38:07.409Z,39.00
2022-09-23T11:39:07.696Z,38.98
2022-09-23T11:40:08.056Z,38.57
2022-09-23T11:41:08.302Z,37.46
2022-09-23T11:42:08.435Z,37.36
2022-09-23T11:43:08.689Z,37.46
2022-09-23T11:44:08.966Z,37.06
2022-09-23T11:45:09.121Z,37.59
2022-09-23T11:46:09.449Z,39.20
2022-09-23T11:47:09.635Z,38.46
2022-09-23T11:48:09.877Z,38.36
2022-09-23T11:49:10.181Z,38.56
2022-09-23T11:50:17.341Z,38.26
2022-09-23T11:51:10.548Z,38.54
2022-09-23T11:52:15.702Z,37.34
2022-09-23T11:53:11.034Z,37.70
2022-09-23T11:54:12.245Z,37.01
2022-09-23T11:55:20.063Z,36.21
2022-09-23T11:56:13.057Z,37.40
2022-09-23T11:57:12.025Z,35.89
2022-09-23T11:58:22.841Z,35.34
2022-09-23T11:59:13.572Z,34.91
2022-09-23T12:00:12.703Z,34.84
2022-09-23T12:01:12.786Z,34.22
2022-09-23T12:02:20.402Z,33.29
2022-09-23T12:03:14.285Z,33.00
2022-09-23T12:04:19.919Z,34.48
2022-09-23T12:05:14.739Z,34.74
2022-09-23T12:06:13.837Z,33.21
2022-09-23T12:07:14.053Z,31.85
2022-09-23T12:08:14.256Z,31.82
2022-09-23T12:09:14.458Z,33.09
2022-09-23T12:10:14.668Z,34.52
2022-09-23T12:11:14.869Z,35.05
2022-09-23T12:12:15.070Z,35.63
2022-09-23T12:13:15.268Z,35.21
2022-09-23T12:14:15.458Z,35.96
2022-09-23T12:15:15.675Z,35.84
2022-09-23T12:16:15.927Z,35.22
2022-09-23T12:17:16.570Z,35.03
2022-09-23T12:18:19.644Z,34.41
2022-09-23T12:19:17.365Z,35.21
2022-09-23T12:20:16.582Z,35.01
2022-09-23T12:21:38.827Z,33.93
2022-09-23T12:22:17.929Z,34.55
2022-09-23T12:23:17.182Z,35.64
2022-09-23T12:24:19.239Z,34.03
2022-09-23T12:25:17.570Z,34.52
2022-09-23T12:26:17.788Z,35.03
2022-09-23T12:27:17.998Z,34.64
2022-09-23T12:28:18.199Z,34.25
2022-09-23T12:29:18.464Z,35.63
2022-09-23T12:30:18.863Z,33.81
2022-09-23T12:31:18.875Z,34.30
2022-09-23T12:32:19.070Z,34.68
2022-09-23T12:33:19.283Z,33.22
2022-09-23T12:34:19.484Z,33.81
2022-09-23T12:35:19.721Z,33.52
2022-09-23T12:36:19.925Z,34.31
2022-09-23T12:37:20.159Z,34.98
2022-09-23T12:38:20.374Z,34.83
2022-09-23T12:39:20.571Z,32.50
2022-09-23T12:40:20.867Z,31.93
2022-09-23T12:41:20.935Z,32.64
2022-09-23T12:42:21.136Z,33.17
2022-09-23T12:43:21.335Z,33.07
2022-09-23T12:44:21.535Z,33.27
2022-09-23T12:45:21.752Z,34.64
2022-09-23T12:46:22.002Z,33.48
2022-09-23T12:47:22.194Z,35.36
2022-09-23T12:48:22.391Z,35.01
2022-09-23T12:49:22.599Z,34.27
2022-09-23T12:50:24.508Z,31.66
2022-09-23T12:51:22.990Z,32.28
2022-09-23T12:52:23.188Z,32.28
2022-09-23T12:53:23.398Z,32.79
2022-09-23T12:54:23.578Z,32.66
2022-09-23T12:55:23.809Z,34.31
2022-09-23T12:56:24.010Z,34.41
2022-09-23T12:57:24.200Z,34.45